Time;durP1;ratioP1;P1;durP2;ratioP2;P2;SDS_P1;SDS_P2;PMS_P1;PMS_P2;Temp;Humidity;BMP_temperature;BMP_pressure;BME280_temperature;BME280_humidity;BME280_pressure;Samples;Min_cycle;Max_cycle;Signal;HPM_P1;HPM_P2
2022/09/18 00:01:24;;;;;;;12.65;1.95;;;10.90;99.90;;;9.68;100.00;99971.47;4994238;28;20168;-77
2022/09/18 00:03:55;;;;;;;19.08;1.80;;;10.90;99.90;;;9.68;100.00;99972.31;5007839;28;20022;-77
2022/09/18 00:06:28;;;;;;;8.82;1.98;;;10.90;99.90;;;9.71;100.00;99976.56;4975477;28;20503;-77
2022/09/18 00:08:57;;;;;;;6.00;1.30;;;11.00;99.90;;;9.74;100.00;99976.38;4992822;28;20070;-77
2022/09/18 00:11:25;;;;;;;6.60;1.70;;;11.00;99.90;;;9.77;100.00;99979.69;4991077;28;20494;-77
2022/09/18 00:13:51;;;;;;;6.03;1.70;;;11.00;99.90;;;9.82;100.00;99984.69;4990517;28;20046;-77
2022/09/18 00:16:21;;;;;;;8.85;1.75;;;11.00;99.90;;;9.82;100.00;99979.44;5008422;28;20049;-76
2022/09/18 00:18:47;;;;;;;7.22;1.00;;;11.00;99.90;;;9.81;100.00;99975.97;5006799;28;20395;-76
2022/09/18 00:21:21;;;;;;;4.65;0.80;;;11.00;99.90;;;9.81;100.00;99977.75;5007699;28;20073;-77
2022/09/18 00:23:48;;;;;;;9.18;0.80;;;11.10;99.90;;;9.83;100.00;99981.16;4990365;28;20105;-77
2022/09/18 00:26:17;;;;;;;6.50;1.10;;;11.10;99.90;;;9.88;100.00;99980.88;5007307;28;20509;-77
2022/09/18 00:28:43;;;;;;;6.53;1.10;;;11.10;99.90;;;9.91;100.00;99978.91;5007971;28;20126;-77
2022/09/18 00:31:14;;;;;;;4.00;0.88;;;11.10;99.90;;;9.90;100.00;99982.50;4974650;28;20042;-77
2022/09/18 00:33:41;;;;;;;5.70;0.82;;;11.10;99.90;;;9.93;100.00;99992.84;5007826;28;20092;-77
2022/09/18 00:36:16;;;;;;;3.22;0.68;;;11.10;99.90;;;9.90;100.00;99990.38;5007876;28;20038;-76
2022/09/18 00:38:43;;;;;;;1.50;0.50;;;11.10;99.90;;;9.86;100.00;99989.69;5005730;28;20109;-77
2022/09/18 00:41:34;;;;;;;5.72;0.65;;;11.20;99.90;;;9.90;100.00;99992.19;5007062;28;20065;-77
2022/09/18 00:44:31;;;;;;;7.03;0.70;;;11.10;99.90;;;9.93;100.00;99999.88;4992745;28;20030;-77
2022/09/18 00:47:13;;;;;;;5.50;0.50;;;11.20;99.90;;;9.95;100.00;99988.34;5007609;28;20385;-78
2022/09/18 00:50:03;;;;;;;4.68;1.00;;;11.20;99.90;;;9.90;100.00;99987.75;5007237;28;20030;-77
2022/09/18 00:52:51;;;;;;;3.55;0.30;;;11.20;99.90;;;9.94;100.00;99984.03;4990649;28;20406;-77
2022/09/18 00:55:25;;;;;;;1.48;0.40;;;11.20;99.90;;;9.94;100.00;99981.41;5006838;28;20418;-77
2022/09/18 00:57:57;;;;;;;4.28;0.50;;;11.20;99.90;;;9.99;100.00;99975.88;4991282;28;20513;-77
2022/09/18 01:00:23;;;;;;;1.17;0.22;;;11.20;99.90;;;9.99;100.00;99973.25;4991738;28;20589;-77
2022/09/18 01:02:52;;;;;;;3.45;0.60;;;11.20;99.90;;;9.92;100.00;99980.63;5004458;28;20022;-77
2022/09/18 01:05:40;;;;;;;3.72;0.30;;;11.20;99.90;;;9.92;100.00;99979.78;5006951;28;20029;-77
2022/09/18 01:08:34;;;;;;;14.80;0.63;;;11.10;99.90;;;9.83;100.00;99983.78;4991280;28;20034;-77
2022/09/18 01:11:31;;;;;;;3.25;0.43;;;11.00;99.90;;;9.74;100.00;99981.63;5007225;28;20033;-77
2022/09/18 01:14:09;;;;;;;1.70;0.30;;;10.90;99.90;;;9.59;100.00;99978.94;5008685;28;20041;-77
2022/09/18 01:17:04;;;;;;;1.80;0.40;;;10.80;99.90;;;9.54;100.00;99983.56;5007957;28;20112;-76
2022/09/18 01:19:58;;;;;;;9.88;0.70;;;10.80;99.90;;;9.48;100.00;99981.31;5007405;28;20026;-77
2022/09/18 01:23:02;;;;;;;3.40;0.32;;;10.70;99.90;;;9.46;100.00;99980.53;5004965;28;20041;-77
2022/09/18 01:25:50;;;;;;;3.47;0.52;;;10.70;99.90;;;9.38;100.00;99980.94;5007297;28;20715;-76
2022/09/18 01:28:42;;;;;;;5.78;0.60;;;10.70;99.90;;;9.36;100.00;99977.53;5007596;28;20046;-77
2022/09/18 01:31:19;;;;;;;2.55;0.40;;;10.60;99.90;;;9.34;100.00;99981.19;4993010;28;20729;-77
2022/09/18 01:34:14;;;;;;;5.38;0.50;;;10.60;99.90;;;9.34;100.00;99986.44;5006924;28;20037;-77
2022/09/18 01:36:51;;;;;;;6.43;0.70;;;10.60;99.90;;;9.32;100.00;99985.66;5002873;28;20133;-77
2022/09/18 01:39:33;;;;;;;4.00;0.60;;;10.60;99.90;;;9.31;100.00;99981.31;5005182;28;20030;-76
2022/09/18 01:42:04;;;;;;;3.47;0.52;;;10.60;99.90;;;9.30;100.00;99987.53;5007223;28;20045;-77
2022/09/18 01:44:32;;;;;;;3.08;0.52;;;10.60;99.90;;;9.31;100.00;99986.56;4991939;28;20025;-77
2022/09/18 01:47:03;;;;;;;7.57;0.52;;;10.60;99.90;;;9.34;100.00;99986.44;4990214;28;20112;-77
2022/09/18 01:49:37;;;;;;;4.32;0.50;;;10.60;99.90;;;9.30;100.00;99993.63;5007161;28;20034;-78
2022/09/18 01:52:21;;;;;;;6.70;0.60;;;10.60;99.90;;;9.31;100.00;99987.44;4990637;28;20100;-77
2022/09/18 01:54:50;;;;;;;5.63;0.60;;;10.60;99.90;;;9.29;100.00;99973.53;4995626;28;20042;-77
2022/09/18 01:57:45;;;;;;;4.68;0.55;;;10.60;99.90;;;9.30;100.00;99980.47;4994368;28;20050;-77
2022/09/18 02:00:13;;;;;;;7.47;0.70;;;10.60;99.90;;;9.28;100.00;99977.09;5006115;28;20026;-77
2022/09/18 02:02:50;;;;;;;10.20;0.80;;;10.60;99.90;;;9.27;100.00;99970.16;5010838;28;20029;-77
2022/09/18 02:05:48;;;;;;;5.05;0.68;;;10.50;99.90;;;9.28;100.00;99968.38;5009631;28;20087;-77
2022/09/18 02:08:47;;;;;;;5.50;0.52;;;10.50;99.90;;;9.29;100.00;99970.91;5004746;28;20041;-77
2022/09/18 02:11:16;;;;;;;3.75;0.80;;;10.50;99.90;;;9.30;100.00;99967.34;4995685;28;20050;-77
2022/09/18 02:14:20;;;;;;;2.67;0.50;;;10.60;99.90;;;9.32;100.00;99969.91;5009852;28;20065;-77
2022/09/18 02:16:51;;;;;;;9.07;0.88;;;10.50;99.90;;;9.30;100.00;99972.59;5010498;28;20053;-77
2022/09/18 02:19:33;;;;;;;12.88;1.10;;;10.60;99.90;;;9.34;100.00;99968.03;4994425;28;20121;-76
2022/09/18 02:22:08;;;;;;;6.53;0.93;;;10.60;99.90;;;9.36;100.00;99974.06;4993396;28;20058;-77
2022/09/18 02:24:38;;;;;;;8.05;1.10;;;10.60;99.90;;;9.38;100.00;99974.84;5010686;28;20044;-77
2022/09/18 02:27:08;;;;;;;7.63;0.90;;;10.60;99.90;;;9.42;100.00;99971.13;5008180;28;20722;-77
2022/09/18 02:29:35;;;;;;;6.38;0.85;;;10.60;99.90;;;9.44;100.00;99971.88;5009713;28;20037;-77
2022/09/18 02:32:02;;;;;;;7.65;0.98;;;10.70;99.90;;;9.44;100.00;99970.09;5010109;28;20087;-77
2022/09/18 02:34:30;;;;;;;8.32;0.77;;;10.70;99.90;;;9.46;100.00;99967.41;5010433;28;20022;-77
2022/09/18 02:37:22;;;;;;;4.68;0.70;;;10.70;99.90;;;9.50;100.00;99968.06;5008325;28;20397;-77
2022/09/18 02:40:28;;;;;;;9.63;1.05;;;10.70;99.90;;;9.49;100.00;99963.75;5008711;28;20030;-77
2022/09/18 02:43:08;;;;;;;11.75;1.10;;;10.70;99.90;;;9.47;100.00;99969.06;5009040;28;20030;-77
2022/09/18 02:46:23;;;;;;;6.80;0.80;;;10.70;99.90;;;9.48;100.00;99970.78;5009546;28;20041;-77
2022/09/18 02:49:17;;;;;;;7.38;0.73;;;10.70;99.90;;;9.48;100.00;99968.16;5006699;28;20061;-77
2022/09/18 02:52:28;;;;;;;8.23;0.93;;;10.70;99.90;;;9.51;100.00;99965.34;5008874;28;20022;-77
2022/09/18 02:55:36;;;;;;;6.50;1.00;;;10.70;99.90;;;9.54;100.00;99966.97;4992340;28;20038;-77
2022/09/18 02:58:34;;;;;;;10.38;1.10;;;10.80;99.90;;;9.62;100.00;99970.03;4986846;28;20057;-77
2022/09/18 03:01:02;;;;;;;;;;;10.80;99.90;;;9.61;100.00;99966.56;4999781;28;20077;-78
2022/09/18 03:03:32;;;;;;;6.63;1.13;;;10.80;99.90;;;9.65;100.00;99973.34;5007038;28;19920;-77
2022/09/18 03:05:58;;;;;;;5.72;0.90;;;10.90;99.90;;;9.75;100.00;99967.56;4992966;28;20026;-77
2022/09/18 03:08:24;;;;;;;9.00;1.20;;;10.90;99.90;;;9.79;100.00;99975.19;5010179;28;20648;-77
2022/09/18 03:10:50;;;;;;;7.20;1.00;;;10.90;99.90;;;9.84;100.00;99970.53;5008500;28;20038;-77
2022/09/18 03:13:16;;;;;;;8.40;1.17;;;11.00;99.90;;;9.86;100.00;99968.66;5008617;28;20026;-77
2022/09/18 03:15:45;;;;;;;9.32;1.08;;;11.00;99.90;;;9.88;100.00;99965.94;5009920;28;20030;-77
2022/09/18 03:18:11;;;;;;;8.35;1.42;;;11.00;99.90;;;9.84;100.00;99962.63;5009766;28;20018;-77
2022/09/18 03:20:36;;;;;;;9.52;1.10;;;11.00;99.90;;;9.83;100.00;99965.38;5008815;28;20128;-77
2022/09/18 03:23:02;;;;;;;17.15;1.90;;;11.00;99.90;;;9.80;100.00;99963.75;5007997;28;20128;-77
2022/09/18 03:25:28;;;;;;;8.95;1.20;;;11.00;99.90;;;9.80;100.00;99960.28;4993801;28;20084;-77
2022/09/18 03:27:54;;;;;;;14.90;1.38;;;11.00;99.90;;;9.80;100.00;99962.91;4993460;28;20120;-77
2022/09/18 03:30:23;;;;;;;10.85;1.70;;;11.00;99.90;;;9.79;100.00;99969.09;5009464;28;20450;-77
2022/09/18 03:32:49;;;;;;;11.93;1.83;;;10.90;99.90;;;9.77;100.00;99969.19;5007927;28;20592;-78
2022/09/18 03:35:15;;;;;;;13.02;1.33;;;10.90;99.90;;;9.78;100.00;99977.91;4990810;28;20025;-77
2022/09/18 03:37:41;;;;;;;10.43;1.30;;;10.90;99.90;;;9.81;100.00;99967.25;5009109;28;20487;-77
2022/09/18 03:40:08;;;;;;;18.23;1.52;;;11.00;99.90;;;9.84;100.00;99969.69;5008792;28;20037;-77
2022/09/18 03:42:34;;;;;;;11.48;1.40;;;11.00;99.90;;;9.90;100.00;99969.34;4991819;28;20053;-77
2022/09/18 03:45:02;;;;;;;13.23;1.65;;;11.10;99.90;;;9.98;100.00;99969.78;5009289;28;20050;-77
2022/09/18 03:47:28;;;;;;;16.98;1.60;;;11.10;99.90;;;10.02;100.00;99973.94;5007791;28;20056;-77
2022/09/18 03:49:53;;;;;;;11.35;1.75;;;11.20;99.90;;;10.08;100.00;99972.72;5007733;28;20042;-77
2022/09/18 03:52:19;;;;;;;13.60;1.60;;;11.20;99.90;;;10.13;100.00;99969.81;5008831;28;20033;-77
2022/09/18 03:54:45;;;;;;;14.73;1.70;;;11.30;99.90;;;10.17;100.00;99973.97;4992178;28;20113;-77
2022/09/18 03:57:11;;;;;;;14.30;1.75;;;11.30;99.90;;;10.20;100.00;99971.19;4992704;28;20438;-77
2022/09/18 03:59:37;;;;;;;13.27;2.25;;;11.30;99.90;;;10.22;100.00;99974.59;5007869;28;20026;-78
2022/09/18 04:02:03;;;;;;;18.55;2.03;;;11.30;99.90;;;10.24;100.00;99976.19;5006853;28;20036;-77
2022/09/18 04:04:32;;;;;;;17.98;1.65;;;11.40;99.90;;;10.24;100.00;99972.72;4991973;28;20050;-77
2022/09/18 04:06:58;;;;;;;16.50;2.00;;;11.40;99.90;;;10.25;100.00;99972.59;4991211;28;20538;-77
2022/09/18 04:09:24;;;;;;;26.48;2.53;;;11.40;99.90;;;10.27;100.00;99970.72;5007095;28;20041;-77
2022/09/18 04:11:49;;;;;;;17.52;2.30;;;11.40;99.90;;;10.24;100.00;99976.19;4991718;28;20097;-77
2022/09/18 04:14:15;;;;;;;26.63;2.88;;;11.40;99.90;;;10.18;100.00;99962.53;4975756;28;20137;-77
2022/09/18 04:16:41;;;;;;;21.08;2.30;;;11.30;99.90;;;10.17;100.00;99968.72;5007969;28;20026;-77
2022/09/18 04:19:12;;;;;;;24.58;3.33;;;11.30;99.90;;;10.13;100.00;99967.19;4992352;28;20116;-77
2022/09/18 04:21:37;;;;;;;30.15;2.78;;;11.30;99.90;;;10.08;100.00;99962.19;4990110;28;20506;-77
2022/09/18 04:24:03;;;;;;;28.10;2.90;;;11.20;99.90;;;10.06;100.00;99964.06;5038392;23;20041;-80
2022/09/18 04:26:33;;;;;;;28.85;2.83;;;11.20;99.90;;;9.95;100.00;99958.56;4993798;28;20457;-82
2022/09/18 04:29:04;;;;;;;20.08;2.40;;;11.20;99.90;;;9.96;100.00;99966.38;4993264;28;20061;-82
2022/09/18 04:31:30;;;;;;;34.15;3.38;;;11.20;99.90;;;9.99;100.00;99975.88;5011285;28;20113;-82
2022/09/18 04:33:56;;;;;;;20.00;2.92;;;11.20;99.90;;;10.00;100.00;99978.44;5012087;28;20041;-80
2022/09/18 04:36:22;;;;;;;31.08;3.63;;;11.20;99.90;;;10.01;100.00;99972.22;5011238;28;20034;-80
2022/09/18 04:38:47;;;;;;;27.23;3.13;;;11.20;99.90;;;10.01;100.00;99974.84;5012610;28;20430;-83
2022/09/18 04:41:22;;;;;;;41.33;3.47;;;11.20;99.90;;;10.00;100.00;99972.28;5008646;28;20681;-80
2022/09/18 04:43:48;;;;;;;27.60;2.90;;;11.10;99.90;;;9.98;100.00;99975.03;4994486;28;20030;-82
2022/09/18 04:46:14;;;;;;;27.13;2.80;;;11.10;99.90;;;9.95;100.00;99967.28;4979906;28;20048;-80
2022/09/18 04:48:39;;;;;;;32.47;3.25;;;11.10;99.90;;;9.94;100.00;99964.78;5010962;28;20089;-82
2022/09/18 04:51:13;;;;;;;36.20;3.92;;;11.10;99.90;;;9.91;100.00;99963.13;5011214;28;20109;-82
2022/09/18 04:53:39;;;;;;;25.17;3.10;;;11.10;99.90;;;9.85;100.00;99968.75;5009781;28;20038;-82
2022/09/18 04:56:05;;;;;;;32.65;3.35;;;11.00;99.90;;;9.82;100.00;99963.66;5010745;28;22023;-82
2022/09/18 04:58:31;;;;;;;28.85;2.92;;;11.00;99.90;;;9.79;100.00;99969.09;4995360;28;20045;-82
2022/09/18 05:00:57;;;;;;;26.77;3.05;;;10.90;99.90;;;9.75;100.00;99970.19;4995716;28;20038;-82
2022/09/18 05:03:31;;;;;;;26.50;2.67;;;10.90;99.90;;;9.71;100.00;99971.31;5009574;28;20022;-81
2022/09/18 05:05:57;;;;;;;32.75;3.63;;;10.90;99.90;;;9.63;100.00;99962.06;5011457;28;20038;-82
2022/09/18 05:08:23;;;;;;;41.58;3.65;;;10.80;99.90;;;9.60;100.00;99964.84;4995857;28;20026;-82
2022/09/18 05:10:49;;;;;;;27.92;3.38;;;10.80;99.90;;;9.58;100.00;99969.34;5011098;28;20506;-82
2022/09/18 05:13:24;;;;;;;30.48;3.45;;;10.80;99.90;;;9.56;100.00;99967.72;5009715;28;20412;-83
2022/09/18 05:16:03;;;;;;;31.73;3.53;;;10.80;99.90;;;9.60;100.00;99970.09;5025614;28;20076;-82
2022/09/18 05:18:28;;;;;;;31.17;3.63;;;10.80;99.90;;;9.58;100.00;99969.34;5009080;28;20040;-82
2022/09/18 05:20:54;;;;;;;27.08;2.88;;;10.70;99.90;;;9.59;100.00;99973.69;4996440;28;20444;-82
2022/09/18 05:23:20;;;;;;;36.13;4.03;;;10.80;99.90;;;9.60;100.00;99977.16;4994071;28;20121;-82
2022/09/18 05:25:54;;;;;;;34.03;3.85;;;10.70;99.90;;;9.55;100.00;99987.91;4993797;28;20041;-81
2022/09/18 05:28:20;;;;;;;25.40;2.75;;;10.70;99.90;;;9.54;100.00;99983.56;5010429;28;20025;-83
2022/09/18 05:30:46;;;;;;;20.67;2.63;;;10.70;99.90;;;9.56;100.00;99986.97;4997866;28;20548;-80
2022/09/18 05:33:12;;;;;;;37.53;3.33;;;10.70;99.90;;;9.56;100.00;99989.59;4999751;28;20026;-81
2022/09/18 05:35:42;;;;;;;27.67;3.05;;;10.70;99.90;;;9.56;100.00;99989.59;5028582;28;20460;-82
2022/09/18 05:38:10;;;;;;;30.15;3.40;;;10.70;99.90;;;9.58;100.00;99994.78;4996924;28;20026;-82
2022/09/18 05:40:37;;;;;;;31.98;3.22;;;10.70;99.90;;;9.59;100.00;99994.69;5012440;28;20030;-82
2022/09/18 05:43:04;;;;;;;38.47;3.60;;;10.70;99.90;;;9.59;100.00;99997.34;4997466;28;20494;-81
2022/09/18 05:45:35;;;;;;;28.15;3.33;;;10.70;99.90;;;9.60;100.00;100000.81;5000214;28;20033;-82
2022/09/18 05:48:05;;;;;;;30.52;2.88;;;10.70;99.90;;;9.63;100.00;99996.25;5014040;28;20048;-82
2022/09/18 05:50:32;;;;;;;23.35;2.67;;;10.70;99.90;;;9.70;100.00;100003.75;5014501;28;20038;-82
2022/09/18 05:53:11;;;;;;;18.08;2.53;;;10.80;99.90;;;9.80;100.00;99997.91;4995646;28;20030;-82
2022/09/18 05:55:37;;;;;;;33.10;3.40;;;10.80;99.90;;;9.88;100.00;100007.19;5016078;28;20544;-82
2022/09/18 05:58:13;;;;;;;31.08;3.20;;;10.90;99.90;;;10.09;100.00;100002.53;5014545;28;20128;-81
2022/09/18 06:00:39;;;;;;;28.58;3.42;;;11.00;99.90;;;10.22;100.00;100003.53;4996005;28;20025;-82
2022/09/18 06:03:13;;;;;;;27.35;2.72;;;11.20;99.90;;;11.07;100.00;100013.47;5010990;28;20038;-81
2022/09/18 06:05:40;;;;;;;21.38;2.33;;;11.30;99.90;;;10.87;100.00;99996.25;4997829;28;20049;-82
2022/09/18 06:08:09;;;;;;;28.48;2.75;;;11.50;99.90;;;10.83;100.00;99999.16;4982181;28;20041;-81
2022/09/18 06:10:39;;;;;;;24.33;2.60;;;11.60;99.90;;;10.83;100.00;100001.78;4997064;28;20048;-81
2022/09/18 06:13:21;;;;;;;30.67;3.50;;;11.60;99.90;;;10.88;100.00;99997.94;5011956;28;20108;-81
2022/09/18 06:15:52;;;;;;;34.30;3.15;;;11.70;99.90;;;11.63;100.00;99995.13;5028024;28;20037;-82
2022/09/18 06:18:24;;;;;;;18.58;2.72;;;12.10;99.90;;;14.81;88.84;100009.44;4999379;28;20072;-83
2022/09/18 06:20:54;;;;;;;21.10;2.53;;;12.70;99.90;;;13.80;81.17;99993.91;5014763;28;20034;-83
2022/09/18 06:23:29;;;;;;;20.75;2.75;;;13.00;99.90;;;12.88;84.51;99987.91;5014178;28;20042;-83
2022/09/18 06:26:01;;;;;;;29.52;2.67;;;13.00;99.90;;;12.86;85.48;99987.16;5012689;28;20033;-81
2022/09/18 06:28:33;;;;;;;25.70;2.92;;;13.00;99.90;;;12.92;86.08;99989.41;5013712;28;20034;-83
2022/09/18 06:31:01;;;;;;;29.10;3.55;;;;;;;12.63;86.57;99991.34;5014852;28;20061;-81
2022/09/18 06:33:38;;;;;;;23.52;2.60;;;12.90;99.90;;;12.91;86.77;99994.78;5013856;28;20036;-82
2022/09/18 06:36:07;;;;;;;23.40;2.92;;;13.40;99.90;;;16.76;77.25;100011.69;5011121;28;20037;-81
2022/09/18 06:38:41;;;;;;;19.90;3.10;;;14.40;99.90;;;18.67;68.23;100003.03;5014899;28;20648;-82
2022/09/18 06:41:07;;;;;;;20.10;2.40;;;16.00;99.90;;;22.70;56.68;100003.72;5015139;28;20025;-81
2022/09/18 06:43:34;;;;;;;27.85;3.38;;;17.50;99.90;;;22.57;55.49;99987.25;4995905;28;20038;-82
2022/09/18 06:46:00;;;;;;;24.30;3.03;;;18.80;99.90;;;24.08;52.31;99995.47;5012157;28;20029;-82
2022/09/18 06:48:35;;;;;;;25.55;3.80;;;19.70;99.90;;;23.41;52.57;99994.06;4994617;28;20124;-82
2022/09/18 06:51:01;;;;;;;14.50;2.92;;;20.50;99.90;;;25.57;49.23;100013.75;5014609;28;20034;-83
2022/09/18 06:53:27;;;;;;;22.60;2.85;;;21.30;99.90;;;26.29;47.14;100008.63;5013596;28;20113;-82
2022/09/18 06:56:01;;;;;;;15.98;2.42;;;22.10;99.90;;;26.65;46.19;100010.47;5011875;28;20382;-82
2022/09/18 06:58:27;;;;;;;21.48;2.70;;;22.90;99.90;;;27.51;44.61;100011.13;5027254;28;20030;-83
2022/09/18 07:00:52;;;;;;;18.48;2.53;;;23.80;99.90;;;28.73;42.52;100022.19;4997590;28;20052;-82
2022/09/18 07:03:18;;;;;;;12.38;2.08;;;24.50;99.90;;;26.76;45.52;100008.09;4998142;28;20141;-83
2022/09/18 07:05:44;;;;;;;11.18;1.92;;;25.10;99.90;;;28.88;42.52;100024.66;4996565;28;20037;-81
2022/09/18 07:08:17;;;;;;;13.35;2.08;;;;;;;26.79;45.02;100021.19;4996349;28;20030;-84
2022/09/18 07:10:43;;;;;;;14.85;2.78;;;25.00;97.50;;;24.35;48.64;100019.16;5011994;28;20109;-82
2022/09/18 07:13:09;;;;;;;15.88;2.30;;;24.10;98.30;;;22.21;51.95;100012.50;4995773;28;20036;-83
2022/09/18 07:15:35;;;;;;;16.38;1.83;;;22.70;98.50;;;20.26;56.14;100017.25;4981499;28;20069;-82
2022/09/18 07:18:12;;;;;;;11.23;1.88;;;21.30;99.90;;;18.82;58.97;100014.97;5013240;28;20038;-83
2022/09/18 07:20:37;;;;;;;10.07;1.52;;;20.00;99.90;;;17.87;60.83;100010.22;4996235;28;20030;-83
2022/09/18 07:23:03;;;;;;;8.32;1.25;;;19.00;99.90;;;17.14;62.97;100020.94;4996126;28;20064;-82
2022/09/18 07:25:35;;;;;;;11.90;1.60;;;18.20;99.90;;;16.59;65.13;100019.28;4998988;28;20025;-83
2022/09/18 07:28:16;;;;;;;8.25;1.40;;;17.60;99.90;;;16.20;65.96;100016.25;5013837;28;20084;-83
2022/09/18 07:30:42;;;;;;;13.60;1.95;;;17.10;99.90;;;16.06;66.83;100015.69;5013197;28;20042;-83
2022/09/18 07:33:09;;;;;;;15.95;2.03;;;;;;;17.26;64.63;100033.19;5012091;28;20079;-83
2022/09/18 07:35:35;;;;;;;16.83;2.95;;;17.60;99.90;;;19.25;60.05;100030.47;5012561;28;20133;-83
2022/09/18 07:38:08;;;;;;;17.95;2.50;;;18.90;99.90;;;20.51;56.38;100022.84;4983307;28;20037;-82
2022/09/18 07:40:38;;;;;;;18.75;2.53;;;20.00;99.90;;;20.83;55.25;100024.16;5030987;28;20044;-84
2022/09/18 07:43:15;;;;;;;15.32;2.40;;;20.30;99.90;;;19.82;57.21;100017.09;5006102;23;20045;-85
2022/09/18 07:45:43;;;;;;;17.13;2.80;;;20.00;99.90;;;19.08;59.34;100019.72;5033884;28;20091;-82
2022/09/18 07:48:09;;;;;;;12.82;2.35;;;19.60;99.90;;;18.39;60.51;100016.22;5050790;28;20049;-84
2022/09/18 07:50:35;;;;;;;20.23;2.08;;;19.00;99.90;;;17.62;62.52;100023.00;5035292;28;20408;-81
2022/09/18 07:53:04;;;;;;;14.38;1.77;;;18.50;99.90;;;17.22;63.75;100021.97;5051055;28;20127;-83
2022/09/18 07:55:35;;;;;;;14.95;1.95;;;18.00;99.90;;;16.63;65.57;100017.22;5020426;28;20033;-84
2022/09/18 07:58:06;;;;;;;9.43;1.27;;;17.50;99.90;;;16.09;67.69;100020.75;5052983;28;20025;-83
2022/09/18 08:00:35;;;;;;;7.10;1.13;;;17.00;99.90;;;15.87;69.05;100022.47;5046549;28;20104;-83
2022/09/18 08:03:11;;;;;;;9.93;1.88;;;16.80;99.90;;;15.86;69.19;100023.44;5050453;28;20029;-82
2022/09/18 08:05:38;;;;;;;6.93;1.00;;;16.60;99.90;;;15.67;69.82;100023.19;5050792;28;20017;-82
2022/09/18 08:08:16;;;;;;;7.10;1.38;;;16.50;99.90;;;15.78;70.27;100023.22;5034948;28;20028;-82
2022/09/18 08:10:44;;;;;;;8.90;1.27;;;16.70;99.90;;;16.56;68.27;100034.63;5049805;28;20067;-83
2022/09/18 08:13:10;;;;;;;9.05;1.05;;;17.10;99.90;;;16.81;66.40;100033.47;5051072;28;20033;-83
2022/09/18 08:15:43;;;;;;;10.65;1.20;;;17.50;99.90;;;16.94;66.48;100034.13;5051352;28;20029;-82
2022/09/18 08:18:10;;;;;;;8.75;1.23;;;17.50;99.90;;;16.69;66.01;100029.13;5049851;28;20057;-82
2022/09/18 08:20:36;;;;;;;7.30;1.35;;;17.40;99.90;;;16.46;67.60;100033.69;5033794;28;20116;-82
2022/09/18 08:23:05;;;;;;;5.40;0.93;;;17.20;99.90;;;16.29;68.31;100027.13;5031928;28;20032;-82
2022/09/18 08:25:33;;;;;;;6.63;0.73;;;17.00;99.90;;;15.97;69.75;100031.41;5048832;28;20378;-83
2022/09/18 08:28:01;;;;;;;5.50;0.85;;;16.80;99.90;;;15.75;71.36;100037.56;5032804;28;20029;-82
2022/09/18 08:30:28;;;;;;;5.47;0.85;;;16.50;99.90;;;15.34;72.86;100038.97;5050244;28;20408;-81
2022/09/18 08:33:02;;;;;;;4.72;0.65;;;16.30;99.90;;;15.36;73.83;100046.81;5031976;28;20119;-81
2022/09/18 08:35:29;;;;;;;7.05;0.90;;;16.20;99.90;;;15.16;74.52;100046.56;5035131;28;20033;-83
2022/09/18 08:37:55;;;;;;;3.75;0.70;;;16.00;99.90;;;14.90;74.40;100047.66;5047250;28;20040;-81
2022/09/18 08:41:21;;;;;;;5.97;0.98;;;15.80;99.90;;;14.69;75.77;100040.38;5032873;28;20505;-82
2022/09/18 08:44:16;;;;;;;7.45;1.00;;;;;;;14.45;77.36;100047.44;5032640;28;20029;-80
2022/09/18 08:47:11;;;;;;;5.70;0.90;;;15.30;99.90;;;14.22;78.75;100043.84;5051245;28;20447;-80
2022/09/18 08:49:55;;;;;;;6.13;0.70;;;15.00;99.90;;;13.80;80.68;100040.66;5037199;28;20029;-80
2022/09/18 08:52:31;;;;;;;5.78;0.90;;;14.70;99.90;;;13.46;82.54;100048.34;5051461;28;20029;-82
2022/09/18 08:55:29;;;;;;;5.80;0.88;;;14.50;99.90;;;13.19;83.15;100040.47;5052030;28;20021;-79
2022/09/18 08:58:06;;;;;;;4.13;0.70;;;14.30;99.90;;;13.06;84.27;100043.09;5050213;28;20041;-79
2022/09/18 09:00:46;;;;;;;4.28;0.82;;;14.00;99.90;;;12.60;85.35;100038.25;5048450;28;20029;-80
2022/09/18 09:04:02;;;;;;;9.18;0.98;;;13.70;99.90;;;12.32;87.54;100037.41;5023673;28;20038;-81
2022/09/18 09:06:45;;;;;;;8.70;1.33;;;13.60;99.90;;;12.36;88.84;100038.09;5050148;28;20067;-79
2022/09/18 09:10:09;;;;;;;;;;;;;;;;;;;;;
2022/09/18 09:13:10;;;;;;;12.60;1.27;;;13.70;99.90;;;13.04;90.81;100035.25;5051001;28;20033;-78
2022/09/18 09:16:06;;;;;;;10.93;1.10;;;14.00;99.90;;;13.80;88.84;100033.59;5052101;28;20496;-78
2022/09/18 09:19:27;;;;;;;9.40;1.38;;;14.60;99.90;;;14.48;85.51;100026.88;5036439;28;20033;-78
2022/09/18 09:22:21;;;;;;;9.75;1.55;;;15.10;99.90;;;15.00;82.88;100022.16;4991044;28;20524;-78
2022/09/18 09:25:44;;;;;;;17.58;2.10;;;15.50;99.90;;;15.07;80.85;100028.66;5052589;28;20080;-79
2022/09/18 09:28:51;;;;;;;12.90;1.80;;;15.60;99.90;;;14.86;81.09;100017.91;4975295;28;20133;-78
2022/09/18 09:31:38;;;;;;;15.32;1.70;;;15.50;99.90;;;14.51;82.48;100005.50;4995730;28;20036;-80
2022/09/18 09:34:25;;;;;;;12.93;1.88;;;15.30;99.90;;;14.19;84.45;100005.22;5018736;28;20045;-78
2022/09/18 09:36:58;;;;;;;19.15;2.20;;;15.10;99.90;;;13.90;86.45;100015.25;5051845;28;20120;-80
2022/09/18 09:40:00;;;;;;;16.95;2.17;;;14.90;99.90;;;13.89;86.93;100008.28;5052871;28;20032;-79
2022/09/18 09:43:19;;;;;;;12.30;1.63;;;14.90;99.90;;;13.92;88.31;100008.03;5051121;28;20095;-79
2022/09/18 09:45:58;;;;;;;15.18;1.95;;;14.80;99.90;;;13.71;89.20;100006.00;4984066;28;20039;-79
2022/09/18 09:48:35;;;;;;;6.53;1.48;;;14.60;99.90;;;13.43;86.55;100012.34;5031250;28;20025;-79
2022/09/18 09:51:44;;;;;;;7.38;1.13;;;14.40;99.90;;;13.14;86.04;100003.78;5052517;28;20029;-80
2022/09/18 09:54:13;;;;;;;6.82;1.17;;;14.10;99.90;;;12.89;86.02;100012.53;5033849;28;20037;-80
2022/09/18 09:57:02;;;;;;;8.60;1.30;;;13.90;99.90;;;12.60;86.67;100014.50;5034808;28;20048;-80
2022/09/18 10:00:16;;;;;;;13.25;1.30;;;13.70;99.90;;;12.39;87.77;100020.22;5050269;28;20045;-80
2022/09/18 10:03:26;;;;;;;6.80;1.00;;;13.50;99.90;;;12.29;89.29;100020.00;5051844;28;20055;-78
2022/09/18 10:06:12;;;;;;;12.50;1.10;;;13.40;99.90;;;12.23;90.32;100016.91;5050205;28;20040;-79
2022/09/18 10:09:09;;;;;;;9.30;0.97;;;13.40;99.90;;;12.21;91.67;100018.78;5052061;28;20083;-79
2022/09/18 10:11:42;;;;;;;13.70;1.10;;;13.30;99.90;;;12.25;92.50;100020.28;5025743;28;20056;-79
2022/09/18 10:14:26;;;;;;;8.85;1.30;;;13.40;99.90;;;12.51;93.45;100024.72;5049297;28;20052;-80
2022/09/18 10:16:57;;;;;;;6.93;1.20;;;13.60;99.90;;;12.99;92.96;100029.47;5052657;28;20056;-79
2022/09/18 10:19:43;;;;;;;11.25;1.30;;;14.00;99.90;;;13.72;92.23;100034.13;5033748;28;20055;-80
2022/09/18 10:22:27;;;;;;;15.68;1.77;;;14.60;99.90;;;14.42;88.91;100019.38;5035556;28;20409;-80
2022/09/18 10:25:15;;;;;;;9.05;1.85;;;15.20;99.90;;;15.15;84.27;100022.78;5050151;28;20033;-79
2022/09/18 10:27:44;;;;;;;11.75;1.25;;;15.80;99.90;;;15.65;81.97;100020.66;5018400;28;20087;-79
2022/09/18 10:30:12;;;;;;;8.95;1.55;;;16.30;99.90;;;16.07;82.71;100020.88;5034305;28;20024;-80
2022/09/18 10:32:45;;;;;;;10.57;1.65;;;16.70;99.90;;;16.47;80.82;100020.28;5033652;28;20545;-80
2022/09/18 10:35:29;;;;;;;9.48;1.77;;;17.00;99.90;;;16.73;77.55;100017.28;5041334;28;20543;-80
2022/09/18 10:37:57;;;;;;;18.13;2.90;;;17.30;99.90;;;16.76;76.52;100017.88;5053340;28;20095;-78
2022/09/18 10:40:40;;;;;;;16.45;1.85;;;17.40;99.90;;;16.78;74.51;100012.41;5033566;28;20028;-80
2022/09/18 10:43:17;;;;;;;12.70;2.03;;;17.40;99.90;;;16.61;72.85;100021.81;5034307;28;20021;-79
2022/09/18 10:45:52;;;;;;;12.05;2.25;;;17.40;99.90;;;16.71;74.65;100017.38;5027274;28;20034;-79
2022/09/18 10:48:28;;;;;;;10.90;1.90;;;17.50;99.90;;;16.73;73.16;100015.44;5034999;28;20025;-79
2022/09/18 10:51:03;;;;;;;13.55;1.63;;;17.50;99.90;;;16.68;73.03;100008.84;5033226;28;20033;-80